Time;durP1;ratioP1;P1;durP2;ratioP2;P2;SDS_P1;SDS_P2;PMS_P1;PMS_P2;Temp;Humidity;BMP_temperature;BMP_pressure;BME280_temperature;BME280_humidity;BME280_pressure;Samples;Min_cycle;Max_cycle;Signal;HPM_P1;HPM_P2
2022/04/10 00:00:45;;;;;;;21.33;2.72;;;;;;;;;;5043017;28;20098;-70
2022/04/10 00:03:13;;;;;;;19.85;2.92;;;;;;;;;;5042027;28;20045;-70
2022/04/10 00:05:40;;;;;;;15.25;2.67;;;;;;;;;;5040433;28;20053;-70
2022/04/10 00:08:07;;;;;;;19.83;2.42;;;;;;;;;;5043765;28;20053;-70
2022/04/10 00:10:36;;;;;;;22.48;3.40;;;;;;;;;;5046585;28;20053;-70
2022/04/10 00:13:03;;;;;;;20.80;2.72;;;;;;;;;;5041775;28;20072;-70
2022/04/10 00:15:30;;;;;;;16.00;2.40;;;;;;;;;;5046931;28;20053;-70
2022/04/10 00:17:57;;;;;;;21.50;2.70;;;;;;;;;;5037303;28;20044;-70
2022/04/10 00:20:25;;;;;;;18.65;2.53;;;;;;;;;;5042464;28;20056;-70
2022/04/10 00:22:52;;;;;;;17.40;2.30;;;;;;;;;;5044494;28;20068;-70
2022/04/10 00:25:20;;;;;;;17.48;2.55;;;;;;;;;;5045658;28;20052;-70
2022/04/10 00:27:49;;;;;;;25.80;2.75;;;;;;;;;;5039587;28;20426;-70
2022/04/10 00:30:17;;;;;;;15.25;2.35;;;;;;;;;;5045637;28;20446;-70
2022/04/10 00:32:44;;;;;;;21.77;2.88;;;;;;;;;;5039153;28;20049;-70
2022/04/10 00:35:12;;;;;;;23.60;2.90;;;;;;;;;;5037878;28;20182;-70
2022/04/10 00:37:40;;;;;;;16.25;2.15;;;;;;;;;;5039391;28;20057;-70
2022/04/10 00:40:08;;;;;;;14.65;2.58;;;;;;;;;;5039628;28;20376;-70
2022/04/10 00:42:36;;;;;;;16.92;2.47;;;;;;;;;;5041764;28;20096;-70
2022/04/10 00:45:05;;;;;;;11.40;1.70;;;;;;;;;;5034107;28;20068;-70
2022/04/10 00:47:32;;;;;;;17.00;2.75;;;;;;;;;;5034265;28;20052;-70
2022/04/10 00:50:00;;;;;;;12.77;2.03;;;;;;;;;;5042054;28;20144;-70
2022/04/10 00:52:28;;;;;;;20.58;2.95;;;;;;;;;;5040485;28;20041;-70
2022/04/10 00:54:55;;;;;;;17.27;2.60;;;;;;;;;;5037218;28;20513;-70
2022/04/10 00:57:23;;;;;;;14.63;2.42;;;;;;;;;;5047596;28;20060;-70
2022/04/10 00:59:50;;;;;;;13.90;2.15;;;;;;;;;;5040081;28;20114;-70
2022/04/10 01:02:18;;;;;;;23.10;2.50;;;;;;;;;;5039958;28;20045;-70
2022/04/10 01:04:47;;;;;;;18.95;2.42;;;;;;;;;;5042811;28;20140;-70
2022/04/10 01:07:15;;;;;;;16.75;2.13;;;;;;;;;;5035401;28;20128;-70
2022/04/10 01:09:42;;;;;;;16.67;2.03;;;;;;;;;;5038736;28;20388;-70
2022/04/10 01:12:10;;;;;;;13.23;1.98;;;;;;;;;;5039736;28;20056;-70
2022/04/10 01:14:38;;;;;;;13.07;1.98;;;;;;;;;;5039804;28;20503;-70
2022/04/10 01:17:08;;;;;;;13.25;1.63;;;;;;;;;;5037233;28;20057;-70
2022/04/10 01:19:38;;;;;;;15.77;1.70;;;;;;;;;;5037002;28;20053;-70
2022/04/10 01:22:07;;;;;;;13.07;1.85;;;;;;;;;;5036535;28;20044;-70
2022/04/10 01:24:37;;;;;;;12.80;1.73;;;;;;;;;;5034439;28;20056;-70
2022/04/10 01:27:05;;;;;;;10.30;1.70;;;;;;;;;;5033955;28;20146;-70
2022/04/10 01:29:33;;;;;;;10.70;1.90;;;;;;;;;;5038580;28;20144;-70
2022/04/10 01:32:01;;;;;;;13.15;2.00;;;;;;;;;;5035275;28;20110;-70
2022/04/10 01:34:28;;;;;;;18.50;2.50;;;;;;;;;;5035297;28;20061;-70
2022/04/10 01:36:56;;;;;;;16.67;2.10;;;;;;;;;;5036453;28;20076;-70
2022/04/10 01:39:26;;;;;;;12.93;1.75;;;;;;;;;;5039111;28;20053;-70
2022/04/10 01:41:55;;;;;;;18.13;2.22;;;;;;;;;;5044961;28;20103;-70
2022/04/10 01:44:22;;;;;;;13.38;2.00;;;;;;;;;;5040193;28;20434;-70
2022/04/10 01:46:49;;;;;;;12.73;1.85;;;;;;;;;;5042472;28;20076;-70
2022/04/10 01:49:16;;;;;;;7.32;1.40;;;;;;;;;;5039181;28;20087;-70
2022/04/10 01:51:44;;;;;;;9.93;1.73;;;;;;;;;;5038760;28;20107;-70
2022/04/10 01:54:11;;;;;;;11.45;1.45;;;;;;;;;;5041408;28;20150;-70
2022/04/10 01:56:38;;;;;;;10.57;1.58;;;;;;;;;;5037663;28;20060;-70
2022/04/10 01:59:07;;;;;;;8.50;1.00;;;;;;;;;;5038196;28;20056;-70
2022/04/10 02:01:34;;;;;;;7.60;0.90;;;;;;;;;;5038558;28;20573;-70
2022/04/10 02:04:01;;;;;;;7.47;1.00;;;;;;;;;;5044119;28;20136;-70
2022/04/10 02:06:28;;;;;;;10.80;1.25;;;;;;;;;;5040616;28;20610;-70
2022/04/10 02:08:55;;;;;;;9.57;1.02;;;;;;;;;;5042107;28;20491;-70
2022/04/10 02:11:23;;;;;;;7.28;1.20;;;;;;;;;;5038250;28;20053;-70
2022/04/10 02:13:50;;;;;;;9.07;1.23;;;;;;;;;;5039038;28;20062;-70
2022/04/10 02:16:20;;;;;;;10.07;1.45;;;;;;;;;;5037562;28;20057;-70
2022/04/10 02:18:47;;;;;;;12.18;1.83;;;;;;;;;;5042127;28;20062;-70
2022/04/10 02:21:14;;;;;;;8.07;1.60;;;;;;;;;;5043229;28;20177;-70
2022/04/10 02:23:42;;;;;;;7.63;1.25;;;;;;;;;;5037070;28;20053;-70
2022/04/10 02:26:10;;;;;;;9.07;1.33;;;;;;;;;;5036053;28;20048;-70
2022/04/10 02:28:37;;;;;;;10.40;1.23;;;;;;;;;;5037515;28;20892;-70
2022/04/10 02:31:04;;;;;;;10.40;1.25;;;;;;;;;;5038672;28;20131;-70
2022/04/10 02:33:33;;;;;;;3.22;0.60;;;;;;;;;;5044180;28;20045;-70
2022/04/10 02:36:00;;;;;;;3.80;0.50;;;;;;;;;;5037317;28;20106;-70
2022/04/10 02:38:27;;;;;;;4.68;0.70;;;;;;;;;;5041424;28;20049;-70
2022/04/10 02:40:54;;;;;;;6.18;0.68;;;;;;;;;;5041319;28;20060;-70
2022/04/10 02:43:22;;;;;;;5.10;0.70;;;;;;;;;;5044310;28;20110;-70
2022/04/10 02:45:49;;;;;;;5.72;0.73;;;;;;;;;;5044422;28;20057;-70
2022/04/10 02:48:16;;;;;;;4.82;0.80;;;;;;;;;;5044462;28;20045;-70
2022/04/10 02:50:45;;;;;;;6.93;0.80;;;;;;;;;;5044639;28;20122;-70
2022/04/10 02:53:12;;;;;;;7.38;0.98;;;;;;;;;;5042922;28;20045;-70
2022/04/10 02:55:39;;;;;;;5.88;1.17;;;;;;;;;;5041110;28;20983;-70
2022/04/10 02:58:06;;;;;;;5.25;0.80;;;;;;;;;;5046413;28;20126;-70
2022/04/10 03:00:33;;;;;;;6.93;1.10;;;;;;;;;;5046776;28;20123;-70
2022/04/10 03:03:00;;;;;;;11.38;1.45;;;;;;;;;;5046612;28;20056;-70
2022/04/10 03:05:28;;;;;;;6.18;1.05;;;;;;;;;;5044862;28;20067;-70
2022/04/10 03:07:56;;;;;;;8.27;1.27;;;;;;;;;;5045577;28;20114;-70
2022/04/10 03:10:23;;;;;;;7.75;1.17;;;;;;;;;;5044292;28;20044;-70
2022/04/10 03:12:51;;;;;;;10.48;1.58;;;;;;;;;;5044745;28;20180;-70
2022/04/10 03:15:18;;;;;;;10.98;1.70;;;;;;;;;;5037692;28;20056;-70
2022/04/10 03:17:45;;;;;;;11.82;1.60;;;;;;;;;;5043226;28;20049;-70
2022/04/10 03:20:12;;;;;;;13.43;1.25;;;;;;;;;;5046898;28;20558;-70
2022/04/10 03:22:39;;;;;;;9.10;1.27;;;;;;;;;;5046468;28;20055;-70
2022/04/10 03:25:09;;;;;;;7.00;0.93;;;;;;;;;;5041146;28;20519;-70
2022/04/10 03:27:36;;;;;;;7.28;1.05;;;;;;;;;;5040693;28;20060;-70
2022/04/10 03:30:04;;;;;;;15.13;1.40;;;;;;;;;;5039150;28;20118;-70
2022/04/10 03:32:31;;;;;;;7.32;1.30;;;;;;;;;;5044668;28;20092;-70
2022/04/10 03:34:58;;;;;;;8.13;1.50;;;;;;;;;;5043959;28;20466;-70
2022/04/10 03:37:25;;;;;;;7.88;1.23;;;;;;;;;;5036638;28;20072;-70
2022/04/10 03:39:53;;;;;;;12.85;1.63;;;;;;;;;;5045323;28;20119;-70
2022/04/10 03:42:21;;;;;;;14.88;1.77;;;;;;;;;;5044561;28;20041;-70
2022/04/10 03:44:48;;;;;;;13.60;1.67;;;;;;;;;;5044280;28;20438;-70
2022/04/10 03:47:15;;;;;;;13.18;1.65;;;;;;;;;;5035141;28;20057;-70
2022/04/10 03:49:43;;;;;;;10.00;2.00;;;;;;;;;;5033954;28;20483;-70
2022/04/10 03:52:10;;;;;;;13.77;1.83;;;;;;;;;;5042772;28;20521;-70
2022/04/10 03:54:37;;;;;;;16.08;1.83;;;;;;;;;;5039091;28;20726;-70
2022/04/10 03:57:05;;;;;;;14.10;1.73;;;;;;;;;;5039002;28;20303;-70
2022/04/10 03:59:33;;;;;;;13.60;1.77;;;;;;;;;;5042675;28;20097;-70
2022/04/10 04:02:00;;;;;;;11.82;1.65;;;;;;;;;;5043491;28;20049;-70
2022/04/10 04:04:28;;;;;;;15.75;1.55;;;;;;;;;;5041228;28;20053;-70
2022/04/10 04:06:55;;;;;;;11.10;1.60;;;;;;;;;;5045658;28;20057;-70
2022/04/10 04:09:22;;;;;;;16.20;1.98;;;;;;;;;;5040074;28;20052;-70
2022/04/10 04:11:49;;;;;;;11.98;1.33;;;;;;;;;;5042154;28;20061;-70
2022/04/10 04:14:16;;;;;;;11.80;1.42;;;;;;;;;;5040146;28;20049;-70
2022/04/10 04:16:45;;;;;;;15.43;1.42;;;;;;;;;;5041865;28;20049;-70
2022/04/10 04:19:13;;;;;;;11.00;1.80;;;;;;;;;;5042356;28;20373;-70
2022/04/10 04:21:40;;;;;;;16.23;1.50;;;;;;;;;;5040825;28;20045;-70
2022/04/10 04:24:07;;;;;;;15.68;1.85;;;;;;;;;;5045398;28;20045;-70
2022/04/10 04:26:34;;;;;;;9.57;1.30;;;;;;;;;;5044278;28;20119;-70
2022/04/10 04:29:01;;;;;;;11.20;1.33;;;;;;;;;;5040888;28;20118;-70
2022/04/10 04:31:29;;;;;;;13.00;1.50;;;;;;;;;;5044435;28;20061;-70
2022/04/10 04:33:57;;;;;;;12.60;1.70;;;;;;;;;;5035914;28;20048;-70
2022/04/10 04:36:24;;;;;;;11.50;1.55;;;;;;;;;;5039465;28;20049;-70
2022/04/10 04:38:52;;;;;;;12.98;2.10;;;;;;;;;;5036639;28;20404;-70
2022/04/10 04:41:20;;;;;;;11.43;1.40;;;;;;;;;;5042763;28;20052;-70
2022/04/10 04:43:47;;;;;;;14.52;1.70;;;;;;;;;;5036300;28;20053;-70
2022/04/10 04:46:14;;;;;;;19.63;2.88;;;;;;;;;;5036375;28;20061;-70
2022/04/10 04:48:41;;;;;;;17.05;1.98;;;;;;;;;;5043127;28;20061;-70
2022/04/10 04:51:10;;;;;;;16.35;1.90;;;;;;;;;;5044315;28;20053;-70
2022/04/10 04:53:37;;;;;;;18.33;2.20;;;;;;;;;;5036491;28;20434;-70
2022/04/10 04:56:05;;;;;;;14.30;1.63;;;;;;;;;;5039296;28;20057;-70
2022/04/10 04:58:32;;;;;;;14.65;1.80;;;;;;;;;;5039383;28;20118;-70
2022/04/10 05:00:59;;;;;;;8.63;1.38;;;;;;;;;;5038692;28;20102;-70
2022/04/10 05:03:26;;;;;;;13.52;1.70;;;;;;;;;;5043585;28;20045;-70
2022/04/10 05:05:53;;;;;;;8.35;1.10;;;;;;;;;;5044259;28;20045;-70
2022/04/10 05:08:22;;;;;;;2.80;0.70;;;;;;;;;;5038561;28;20060;-70
2022/04/10 05:10:49;;;;;;;4.18;0.60;;;;;;;;;;5042285;28;20924;-70
2022/04/10 05:13:16;;;;;;;3.65;0.90;;;;;;;;;;5040599;28;20080;-70
2022/04/10 05:15:44;;;;;;;2.67;0.60;;;;;;;;;;5045558;28;20189;-69
2022/04/10 05:18:13;;;;;;;6.03;0.80;;;;;;;;;;5042533;28;20049;-69
2022/04/10 05:20:40;;;;;;;8.68;1.00;;;;;;;;;;5039960;28;20064;-69
2022/04/10 05:23:07;;;;;;;4.50;0.70;;;;;;;;;;5042174;28;20041;-69
2022/04/10 05:25:37;;;;;;;6.68;1.05;;;;;;;;;;5041821;28;20048;-69
2022/04/10 05:28:04;;;;;;;4.97;0.77;;;;;;;;;;5038759;28;20102;-69
2022/04/10 05:30:32;;;;;;;9.18;1.08;;;;;;;;;;5034965;28;20057;-69
2022/04/10 05:32:59;;;;;;;6.68;1.23;;;;;;;;;;5043016;28;20471;-69
2022/04/10 05:35:27;;;;;;;6.95;1.17;;;;;;;;;;5038288;28;20118;-69
2022/04/10 05:37:54;;;;;;;6.72;0.88;;;;;;;;;;5031933;28;20056;-71
2022/04/10 05:40:22;;;;;;;5.03;0.95;;;;;;;;;;5044596;28;20118;-70
2022/04/10 05:42:50;;;;;;;7.40;1.08;;;;;;;;;;5044015;28;20128;-70
2022/04/10 05:45:18;;;;;;;7.60;1.35;;;;;;;;;;5040078;28;20110;-70
2022/04/10 05:47:45;;;;;;;8.57;1.58;;;;;;;;;;5039704;28;20064;-70
2022/04/10 05:50:13;;;;;;;8.57;1.55;;;;;;;;;;5042588;28;20118;-70
2022/04/10 05:52:41;;;;;;;8.02;1.70;;;;;;;;;;5043148;28;20500;-70
2022/04/10 05:55:09;;;;;;;12.32;1.65;;;;;;;;;;5043477;28;20411;-70
2022/04/10 05:57:37;;;;;;;9.10;1.45;;;;;;;;;;5042081;28;20418;-70
2022/04/10 06:00:07;;;;;;;8.23;1.70;;;;;;;;;;5034717;28;20061;-70
2022/04/10 06:02:34;;;;;;;14.80;1.80;;;;;;;;;;5044102;28;20463;-70
2022/04/10 06:05:01;;;;;;;14.90;2.03;;;;;;;;;;5043371;28;20126;-70
2022/04/10 06:07:29;;;;;;;13.30;1.60;;;;;;;;;;5039652;28;20045;-70
2022/04/10 06:09:56;;;;;;;12.35;1.88;;;;;;;;;;5041084;28;20056;-70
2022/04/10 06:12:23;;;;;;;11.15;2.00;;;;;;;;;;5044283;28;20127;-70
2022/04/10 06:14:50;;;;;;;16.75;2.53;;;;;;;;;;5042671;28;20063;-70
2022/04/10 06:17:19;;;;;;;16.00;2.15;;;;;;;;;;5049440;28;20105;-70
2022/04/10 06:19:46;;;;;;;11.20;1.92;;;;;;;;;;5045222;28;20060;-70
2022/04/10 06:22:14;;;;;;;15.20;2.00;;;;;;;;;;5046992;28;20053;-70
2022/04/10 06:24:41;;;;;;;14.55;2.60;;;;;;;;;;5043760;28;21473;-70
2022/04/10 06:27:09;;;;;;;14.23;2.00;;;;;;;;;;5045171;28;20048;-70
2022/04/10 06:29:36;;;;;;;13.52;2.13;;;;;;;;;;5042379;28;20049;-70
2022/04/10 06:32:03;;;;;;;11.77;2.47;;;;;;;;;;5040960;28;20114;-70
2022/04/10 06:34:32;;;;;;;19.38;2.30;;;;;;;;;;5043296;28;20041;-70
2022/04/10 06:36:59;;;;;;;14.07;2.15;;;;;;;;;;5039883;28;20114;-70
2022/04/10 06:39:26;;;;;;;10.70;1.75;;;;;;;;;;5042830;28;20056;-70
2022/04/10 06:41:53;;;;;;;13.77;1.60;;;;;;;;;;5035735;28;20054;-70
2022/04/10 06:44:20;;;;;;;10.27;1.75;;;;;;;;;;5045237;28;20090;-70
2022/04/10 06:46:48;;;;;;;13.85;1.92;;;;;;;;;;5046648;28;20107;-70
2022/04/10 06:49:15;;;;;;;16.08;2.08;;;;;;;;;;5047226;28;20044;-70
2022/04/10 06:51:43;;;;;;;12.10;2.22;;;;;;;;;;5044407;28;20056;-70
2022/04/10 06:54:11;;;;;;;15.35;1.80;;;;;;;;;;5047706;28;20056;-70
2022/04/10 06:56:38;;;;;;;14.30;1.92;;;;;;;;;;5047322;28;20396;-70
2022/04/10 06:59:05;;;;;;;15.18;2.92;;;;;;;;;;5043430;28;20054;-70
2022/04/10 07:01:33;;;;;;;10.70;1.83;;;;;;;;;;5047873;28;20061;-70
2022/04/10 07:04:01;;;;;;;12.63;1.73;;;;;;;;;;5043427;28;20044;-70
2022/04/10 07:06:28;;;;;;;14.45;2.08;;;;;;;;;;5047428;28;20450;-70
2022/04/10 07:08:57;;;;;;;14.05;2.00;;;;;;;;;;5045590;28;20061;-70
2022/04/10 07:11:24;;;;;;;17.13;1.90;;;;;;;;;;5049334;28;20064;-70
2022/04/10 07:13:51;;;;;;;21.00;2.75;;;;;;;;;;5039472;28;20110;-70
2022/04/10 07:16:18;;;;;;;15.27;2.38;;;;;;;;;;5040978;28;20048;-70
2022/04/10 07:18:46;;;;;;;15.43;2.33;;;;;;;;;;5047017;28;20048;-70
2022/04/10 07:21:13;;;;;;;13.73;1.80;;;;;;;;;;5046346;28;20057;-70
2022/04/10 07:23:43;;;;;;;16.63;2.20;;;;;;;;;;5044191;28;20373;-70
2022/04/10 07:26:13;;;;;;;14.55;2.10;;;;;;;;;;5043392;28;20052;-70
2022/04/10 07:28:41;;;;;;;15.40;2.33;;;;;;;;;;5045284;28;20103;-70
2022/04/10 07:31:08;;;;;;;18.67;1.98;;;;;;;;;;5041711;28;20049;-70
2022/04/10 07:33:36;;;;;;;13.35;1.75;;;;;;;;;;5040383;28;20090;-70
2022/04/10 07:36:03;;;;;;;13.95;2.53;;;;;;;;;;5044288;28;20045;-70
2022/04/10 07:38:30;;;;;;;8.30;1.63;;;;;;;;;;5034946;28;20049;-70
2022/04/10 07:40:57;;;;;;;12.63;1.88;;;;;;;;;;5043832;28;20060;-70
2022/04/10 07:43:26;;;;;;;15.57;1.73;;;;;;;;;;5040064;28;20045;-70
2022/04/10 07:48:38;;;;;;;17.52;2.10;;;;;;;;;;5040933;28;20139;-70
2022/04/10 07:51:07;;;;;;;13.95;1.98;;;;;;;;;;5043452;28;20056;-70
2022/04/10 07:53:34;;;;;;;13.55;1.70;;;;;;;;;;5041542;28;20765;-70
2022/04/10 07:56:01;;;;;;;12.52;1.50;;;;;;;;;;5040384;28;20055;-70
2022/04/10 07:58:30;;;;;;;15.13;1.80;;;;;;;;;;5039927;28;20111;-70
2022/04/10 08:00:57;;;;;;;12.07;1.80;;;;;;;;;;5041732;28;20064;-70
2022/04/10 08:03:24;;;;;;;13.93;2.58;;;;;;;;;;5041740;28;20703;-70
2022/04/10 08:05:52;;;;;;;13.23;2.00;;;;;;;;;;5042882;28;20115;-70
2022/04/10 08:08:19;;;;;;;16.13;1.88;;;;;;;;;;5043682;28;20053;-70
2022/04/10 08:10:46;;;;;;;10.88;1.70;;;;;;;;;;5043814;28;20130;-70
2022/04/10 08:13:14;;;;;;;14.75;1.67;;;;;;;;;;5043285;28;20056;-70
2022/04/10 08:15:42;;;;;;;10.23;2.10;;;;;;;;;;5040334;28;20042;-70
2022/04/10 08:18:09;;;;;;;11.30;1.52;;;;;;;;;;5043788;28;20045;-70
2022/04/10 08:20:36;;;;;;;13.00;2.17;;;;;;;;;;5045761;28;20106;-70
2022/04/10 08:23:04;;;;;;;14.40;1.70;;;;;;;;;;5041667;28;20080;-70
2022/04/10 08:25:31;;;;;;;17.55;3.35;;;;;;;;;;5045832;28;20048;-70
2022/04/10 08:27:58;;;;;;;12.95;2.13;;;;;;;;;;5038370;28;20057;-70
2022/04/10 08:30:25;;;;;;;9.95;1.77;;;;;;;;;;5042359;28;20045;-70
2022/04/10 08:32:54;;;;;;;16.17;1.65;;;;;;;;;;5040149;28;20049;-70
2022/04/10 08:35:21;;;;;;;12.25;1.52;;;;;;;;;;5041202;28;20041;-70
2022/04/10 08:37:48;;;;;;;17.25;3.17;;;;;;;;;;5037055;28;20123;-70
2022/04/10 08:40:16;;;;;;;16.17;2.10;;;;;;;;;;5046298;28;20044;-70
2022/04/10 08:42:43;;;;;;;12.73;1.67;;;;;;;;;;5039255;28;20045;-70
2022/04/10 08:45:11;;;;;;;12.40;1.67;;;;;;;;;;5037719;28;20056;-70
2022/04/10 08:47:39;;;;;;;13.05;1.88;;;;;;;;;;5036045;28;20061;-70
2022/04/10 08:50:09;;;;;;;8.15;1.45;;;;;;;;;;5045655;28;20057;-70
2022/04/10 08:52:37;;;;;;;9.57;1.50;;;;;;;;;;5039320;28;20045;-70
2022/04/10 08:55:04;;;;;;;12.00;1.75;;;;;;;;;;5041740;28;20119;-70
2022/04/10 08:57:31;;;;;;;8.82;1.85;;;;;;;;;;5038292;28;20083;-70
2022/04/10 08:59:59;;;;;;;10.15;2.00;;;;;;;;;;5040843;28;20117;-70
2022/04/10 09:02:26;;;;;;;14.27;2.85;;;;;;;;;;5041718;28;20065;-70
2022/04/10 09:04:53;;;;;;;10.10;1.48;;;;;;;;;;5044902;28;20510;-70
2022/04/10 09:07:22;;;;;;;12.15;1.48;;;;;;;;;;5042760;28;20128;-70
2022/04/10 09:09:56;;;;;;;8.18;1.40;;;;;;;;;;5036088;28;20114;-70
2022/04/10 09:12:24;;;;;;;12.93;1.70;;;;;;;;;;5043732;28;20049;-70
2022/04/10 09:14:51;;;;;;;12.55;1.85;;;;;;;;;;5039173;28;20053;-70
2022/04/10 09:17:19;;;;;;;16.30;1.98;;;;;;;;;;5043283;28;20119;-70
2022/04/10 09:19:47;;;;;;;13.05;2.13;;;;;;;;;;5042769;28;20056;-70
2022/04/10 09:22:23;;;;;;;12.20;1.92;;;;;;;;;;5045334;28;20111;-70
2022/04/10 09:25:04;;;;;;;14.32;2.20;;;;;;;;;;5038449;28;20049;-70
2022/04/10 09:27:31;;;;;;;12.07;2.28;;;;;;;;;;5041092;28;20060;-70
2022/04/10 09:29:58;;;;;;;11.23;1.90;;;;;;;;;;5041489;28;20091;-70
2022/04/10 09:32:37;;;;;;;12.88;2.08;;;;;;;;;;5045299;28;20099;-70
2022/04/10 09:35:04;;;;;;;7.15;1.50;;;;;;;;;;5041513;28;20119;-70
2022/04/10 09:37:42;;;;;;;12.55;2.00;;;;;;;;;;5041979;28;20063;-70
2022/04/10 09:40:29;;;;;;;13.65;1.58;;;;;;;;;;5043669;28;20049;-70
2022/04/10 09:43:00;;;;;;;8.75;1.25;;;;;;;;;;5041847;28;20056;-70
2022/04/10 09:45:27;;;;;;;7.50;1.42;;;;;;;;;;5042132;28;20049;-70
2022/04/10 09:47:55;;;;;;;13.82;1.38;;;;;;;;;;5038510;28;20216;-71
2022/04/10 09:50:30;;;;;;;8.82;1.13;;;;;;;;;;5038849;28;20454;-71
2022/04/10 09:52:59;;;;;;;8.35;1.40;;;;;;;;;;5043382;28;20068;-71
2022/04/10 09:55:36;;;;;;;9.60;1.50;;;;;;;;;;5042785;28;20515;-70
2022/04/10 09:58:06;;;;;;;11.90;2.15;;;;;;;;;;5042356;28;20056;-70
2022/04/10 10:00:35;;;;;;;8.75;1.52;;;;;;;;;;5042301;28;20048;-70
2022/04/10 10:03:02;;;;;;;11.18;1.50;;;;;;;;;;5041486;28;20088;-70
2022/04/10 10:05:30;;;;;;;9.52;1.48;;;;;;;;;;5043660;28;20045;-70
2022/04/10 10:07:59;;;;;;;13.10;1.63;;;;;;;;;;5044030;28;20056;-70
2022/04/10 10:10:30;;;;;;;6.63;1.15;;;;;;;;;;5039626;28;20042;-70
2022/04/10 10:12:57;;;;;;;9.93;1.98;;;;;;;;;;5034580;28;20103;-70
2022/04/10 10:15:25;;;;;;;13.25;1.63;;;;;;;;;;5039998;28;20118;-70
2022/04/10 10:17:53;;;;;;;8.10;1.20;;;;;;;;;;5043015;28;20162;-70
2022/04/10 10:20:21;;;;;;;7.82;1.05;;;;;;;;;;5038159;28;20112;-70
2022/04/10 10:22:48;;;;;;;10.63;1.45;;;;;;;;;;5042789;28;20063;-70
2022/04/10 10:25:19;;;;;;;10.85;1.27;;;;;;;;;;5043276;28;20052;-70
2022/04/10 10:28:09;;;;;;;9.63;1.50;;;;;;;;;;5036493;28;20171;-70
2022/04/10 10:30:38;;;;;;;13.32;1.48;;;;;;;;;;5042358;28;20053;-70
2022/04/10 10:33:14;;;;;;;9.93;1.50;;;;;;;;;;5042042;28;20514;-70
2022/04/10 10:35:42;;;;;;;8.80;1.45;;;;;;;;;;5041752;28;20045;-70
2022/04/10 10:38:20;;;;;;;9.57;1.42;;;;;;;;;;5041109;28;20052;-70
2022/04/10 10:40:49;;;;;;;9.70;1.55;;;;;;;;;;5039350;28;20073;-70
2022/04/10 10:43:20;;;;;;;9.90;1.40;;;;;;;;;;5041021;28;21059;-70
2022/04/10 10:45:50;;;;;;;9.50;1.33;;;;;;;;;;5031055;28;20455;-70
2022/04/10 10:48:35;;;;;;;6.63;1.13;;;;;;;;;;5031564;28;20060;-70
2022/04/10 10:51:03;;;;;;;11.15;1.55;;;;;;;;;;5035442;28;20156;-70
2022/04/10 10:53:43;;;;;;;12.82;1.67;;;;;;;;;;5044880;28;20056;-70
2022/04/10 10:56:15;;;;;;;9.70;1.38;;;;;;;;;;5036898;28;20120;-70
2022/04/10 10:58:42;;;;;;;8.23;1.25;;;;;;;;;;5044204;28;20102;-70
2022/04/10 11:01:10;;;;;;;9.45;1.50;;;;;;;;;;5047868;28;20049;-70
2022/04/10 11:03:52;;;;;;;5.22;1.23;;;;;;;;;;5041663;28;20052;-70
2022/04/10 11:06:22;;;;;;;7.55;1.20;;;;;;;;;;5046826;28;20056;-70
2022/04/10 11:08:49;;;;;;;6.00;1.10;;;;;;;;;;5039729;28;20060;-70
2022/04/10 11:11:19;;;;;;;7.65;1.40;;;;;;;;;;5045141;28;20049;-70
2022/04/10 11:13:46;;;;;;;9.70;2.20;;;;;;;;;;5041627;28;20053;-70
2022/04/10 11:16:15;;;;;;;11.80;2.22;;;;;;;;;;5044347;28;20148;-71
2022/04/10 11:18:42;;;;;;;8.80;2.13;;;;;;;;;;5045366;28;20094;-71
2022/04/10 11:21:11;;;;;;;10.20;2.45;;;;;;;;;;5037598;28;20060;-71
2022/04/10 11:23:45;;;;;;;9.27;1.80;;;;;;;;;;5042968;28;20487;-71
2022/04/10 11:26:14;;;;;;;9.60;2.00;;;;;;;;;;5040115;28;20049;-71
2022/04/10 11:28:55;;;;;;;6.32;1.70;;;;;;;;;;5041491;28;20131;-71
2022/04/10 11:31:32;;;;;;;8.60;2.03;;;;;;;;;;5047979;28;21303;-71
2022/04/10 11:34:08;;;;;;;8.65;2.22;;;;;;;;;;5046528;28;20111;-71
2022/04/10 11:36:45;;;;;;;13.98;2.78;;;;;;;;;;5046417;28;20140;-71
2022/04/10 11:39:13;;;;;;;7.97;1.75;;;;;;;;;;5043497;28;20044;-71
2022/04/10 11:41:42;;;;;;;6.35;1.65;;;;;;;;;;5047384;28;20056;-71
2022/04/10 11:44:11;;;;;;;5.80;1.33;;;;;;;;;;5048126;28;20048;-71
2022/04/10 11:46:38;;;;;;;12.32;1.98;;;;;;;;;;5044764;28;20045;-71
2022/04/10 11:49:05;;;;;;;11.63;1.63;;;;;;;;;;5046298;28;20491;-71
2022/04/10 11:51:33;;;;;;;9.05;1.48;;;;;;;;;;5041510;28;20923;-72
2022/04/10 11:54:00;;;;;;;7.68;1.35;;;;;;;;;;5038920;28;20503;-71
2022/04/10 11:56:27;;;;;;;9.88;1.60;;;;;;;;;;5041685;28;20069;-71
2022/04/10 11:58:54;;;;;;;12.05;1.55;;;;;;;;;;5048421;28;20146;-71
2022/04/10 12:01:23;;;;;;;6.43;1.40;;;;;;;;;;5042770;28;20479;-71
2022/04/10 12:03:50;;;;;;;6.60;1.30;;;;;;;;;;5048460;28;20048;-71
2022/04/10 12:06:20;;;;;;;8.00;1.40;;;;;;;;;;5049112;28;20154;-71
2022/04/10 12:08:47;;;;;;;9.38;1.40;;;;;;;;;;5046384;28;20140;-71
2022/04/10 12:11:14;;;;;;;9.00;1.70;;;;;;;;;;5044900;28;20044;-71
2022/04/10 12:13:42;;;;;;;6.05;1.23;;;;;;;;;;5041136;28;20053;-71
2022/04/10 12:16:10;;;;;;;7.68;1.55;;;;;;;;;;5040392;28;20045;-71
2022/04/10 12:18:49;;;;;;;8.95;1.30;;;;;;;;;;5043239;28;20064;-71
2022/04/10 12:21:16;;;;;;;7.10;1.70;;;;;;;;;;5038079;28;20068;-71
2022/04/10 12:23:43;;;;;;;10.82;2.58;;;;;;;;;;5042516;28;20504;-71
2022/04/10 12:26:10;;;;;;;6.60;2.03;;;;;;;;;;5044218;28;20045;-71
2022/04/10 12:28:39;;;;;;;9.65;1.60;;;;;;;;;;5044111;28;20107;-71
2022/04/10 12:31:07;;;;;;;5.68;1.23;;;;;;;;;;5041747;28;20122;-71
2022/04/10 12:33:34;;;;;;;7.07;1.40;;;;;;;;;;5039004;28;20126;-71
2022/04/10 12:36:16;;;;;;;7.22;1.60;;;;;;;;;;5046741;28;20651;-71
2022/04/10 12:38:43;;;;;;;10.32;1.65;;;;;;;;;;5040212;28;20057;-71
2022/04/10 12:41:10;;;;;;;8.77;1.38;;;;;;;;;;5043212;28;20114;-71
2022/04/10 12:43:37;;;;;;;8.00;1.20;;;;;;;;;;5037482;28;20604;-71
2022/04/10 12:46:11;;;;;;;7.65;1.40;;;;;;;;;;5038755;28;20114;-71
2022/04/10 12:48:39;;;;;;;10.88;1.67;;;;;;;;;;5040282;28;20064;-71
2022/04/10 12:51:09;;;;;;;3.58;0.98;;;;;;;;;;5041429;28;20090;-71
2022/04/10 12:53:36;;;;;;;5.80;1.30;;;;;;;;;;5047365;28;20052;-71
2022/04/10 12:56:03;;;;;;;8.15;1.48;;;;;;;;;;5040093;28;20130;-71
2022/04/10 12:58:44;;;;;;;5.88;1.15;;;;;;;;;;5030931;28;20060;-71
2022/04/10 13:01:24;;;;;;;6.38;1.30;;;;;;;;;;5053063;28;20114;-71
2022/04/10 13:03:52;;;;;;;5.22;1.10;;;;;;;;;;5042481;28;20064;-71
2022/04/10 13:06:26;;;;;;;6.43;1.15;;;;;;;;;;5044747;28;20135;-71
2022/04/10 13:08:54;;;;;;;4.13;1.25;;;;;;;;;;5046414;28;20080;-71
2022/04/10 13:11:24;;;;;;;5.05;0.90;;;;;;;;;;5041679;28;20056;-71
2022/04/10 13:13:58;;;;;;;5.63;1.33;;;;;;;;;;5033912;28;20581;-71
2022/04/10 13:16:27;;;;;;;4.97;1.40;;;;;;;;;;5041843;28;20052;-71
2022/04/10 13:18:55;;;;;;;6.88;1.45;;;;;;;;;;5037512;28;20057;-71
2022/04/10 13:21:25;;;;;;;4.20;1.30;;;;;;;;;;5037176;28;20053;-71
2022/04/10 13:23:52;;;;;;;8.07;1.50;;;;;;;;;;5041889;28;20110;-71
2022/04/10 13:26:24;;;;;;;6.20;1.60;;;;;;;;;;5039415;28;20445;-71
2022/04/10 13:28:51;;;;;;;5.00;1.23;;;;;;;;;;5036760;28;20110;-71
2022/04/10 13:31:19;;;;;;;7.45;1.48;;;;;;;;;;5034192;28;20151;-71
2022/04/10 13:33:46;;;;;;;10.02;1.92;;;;;;;;;;5040435;28;20064;-71
2022/04/10 13:36:13;;;;;;;3.60;1.27;;;;;;;;;;5042540;28;20045;-71
2022/04/10 13:38:42;;;;;;;7.50;1.33;;;;;;;;;;5044452;28;20057;-71
2022/04/10 13:41:10;;;;;;;4.43;1.27;;;;;;;;;;5042680;28;20068;-71
2022/04/10 13:43:38;;;;;;;7.53;1.30;;;;;;;;;;5044188;28;20057;-71
2022/04/10 13:46:05;;;;;;;8.20;1.52;;;;;;;;;;5037885;28;20115;-71
2022/04/10 13:48:32;;;;;;;10.05;1.60;;;;;;;;;;5042881;28;20049;-71
2022/04/10 13:51:00;;;;;;;5.53;1.23;;;;;;;;;;5036100;28;20499;-71
2022/04/10 13:53:27;;;;;;;5.88;1.55;;;;;;;;;;5038564;28;20053;-71
2022/04/10 13:55:55;;;;;;;3.05;1.00;;;;;;;;;;5041482;28;20057;-71
2022/04/10 13:58:23;;;;;;;4.03;1.13;;;;;;;;;;5039642;28;20053;-71
2022/04/10 14:00:50;;;;;;;4.93;1.27;;;;;;;;;;5040059;28;20118;-71
2022/04/10 14:03:18;;;;;;;6.95;1.50;;;;;;;;;;5039679;28;20541;-71
2022/04/10 14:05:45;;;;;;;7.13;1.50;;;;;;;;;;5041698;28;20141;-71
2022/04/10 14:08:13;;;;;;;6.20;1.60;;;;;;;;;;5041952;28;20053;-71
2022/04/10 14:10:41;;;;;;;12.02;1.42;;;;;;;;;;5041052;28;20067;-71
2022/04/10 14:13:10;;;;;;;5.45;1.65;;;;;;;;;;5041983;28;20056;-71
2022/04/10 14:15:37;;;;;;;4.70;1.25;;;;;;;;;;5036542;28;20064;-71
2022/04/10 14:18:05;;;;;;;4.40;1.35;;;;;;;;;;5042251;28;20126;-71
2022/04/10 14:20:33;;;;;;;5.15;1.30;;;;;;;;;;5038019;28;20081;-71
2022/04/10 14:23:01;;;;;;;6.07;1.80;;;;;;;;;;5039570;28;20115;-72
2022/04/10 14:25:28;;;;;;;5.57;1.42;;;;;;;;;;5039343;28;20045;-71
2022/04/10 14:27:55;;;;;;;5.78;1.55;;;;;;;;;;5040784;28;20056;-71
2022/04/10 14:30:24;;;;;;;6.95;1.40;;;;;;;;;;5041947;28;20049;-71
2022/04/10 14:32:54;;;;;;;3.80;0.93;;;;;;;;;;5044393;28;20080;-71
2022/04/10 14:35:22;;;;;;;6.78;1.27;;;;;;;;;;5046981;28;20049;-71
2022/04/10 14:37:50;;;;;;;5.72;1.25;;;;;;;;;;5047572;28;20053;-71
2022/04/10 14:40:17;;;;;;;5.60;1.35;;;;;;;;;;5045935;28;20053;-71
2022/04/10 14:42:44;;;;;;;6.40;1.20;;;;;;;;;;5045920;28;20130;-71
2022/04/10 14:45:12;;;;;;;5.78;1.30;;;;;;;;;;5045903;28;20160;-72